createdAt,value
2023-03-18T00:00:57.731Z,11.6
2023-03-18T00:03:25.991Z,11.4
2023-03-18T00:05:54.249Z,11.5
2023-03-18T00:08:22.502Z,11.4
2023-03-18T00:10:50.758Z,11.3
2023-03-18T00:13:19.016Z,11.3
2023-03-18T00:14:33.748Z,11.3
2023-03-18T00:15:47.292Z,11.3
2023-03-18T00:18:15.554Z,11.4
2023-03-18T00:20:43.804Z,11.4
2023-03-18T00:23:12.060Z,11.2
2023-03-18T00:28:08.576Z,11
2023-03-18T00:30:36.834Z,11.1
2023-03-18T00:33:05.090Z,11.2
2023-03-18T00:35:33.347Z,11.3
2023-03-18T00:38:01.601Z,11.4
2023-03-18T00:39:16.342Z,11.5
2023-03-18T00:40:29.877Z,11.5
2023-03-18T00:42:58.141Z,11.6
2023-03-18T00:45:26.399Z,11.4
2023-03-18T00:47:54.653Z,11.3
2023-03-18T00:50:22.915Z,11.3
2023-03-18T00:52:51.167Z,11.4
2023-03-18T00:55:19.429Z,11.4
2023-03-18T01:00:15.935Z,11.4
2023-03-18T01:02:44.194Z,11.7
2023-03-18T01:03:58.930Z,11.8
2023-03-18T01:05:12.468Z,11.8
2023-03-18T01:07:40.734Z,11.8
2023-03-18T01:10:08.984Z,11.7
2023-03-18T01:12:37.240Z,11.7
2023-03-18T01:15:05.496Z,11.7
2023-03-18T01:17:33.762Z,11.7
2023-03-18T01:20:02.012Z,11.5
2023-03-18T01:22:30.275Z,11.6
2023-03-18T01:24:58.534Z,11.6
2023-03-18T01:27:26.787Z,11.6
2023-03-18T01:29:55.043Z,11.7
2023-03-18T01:32:23.303Z,11.7
2023-03-18T01:34:51.562Z,11.6
2023-03-18T01:37:19.820Z,11.8
2023-03-18T01:39:48.071Z,11.8
2023-03-18T01:42:16.334Z,11.7
2023-03-18T01:44:44.585Z,11.8
2023-03-18T01:47:12.840Z,11.9
2023-03-18T01:49:41.101Z,11.9
2023-03-18T01:52:09.360Z,11.8
2023-03-18T01:53:24.104Z,11.8
2023-03-18T01:54:37.649Z,11.8
2023-03-18T01:57:05.908Z,11.7
2023-03-18T02:02:02.425Z,11.6
2023-03-18T02:04:30.685Z,11.9
2023-03-18T02:06:58.933Z,11.9
2023-03-18T02:09:27.196Z,12
2023-03-18T02:11:55.455Z,12
2023-03-18T02:14:23.711Z,11.8
2023-03-18T02:16:51.964Z,11.8
2023-03-18T02:18:06.697Z,11.7
2023-03-18T02:19:20.240Z,11.8
2023-03-18T02:21:48.502Z,11.8
2023-03-18T02:24:16.759Z,11.7
2023-03-18T02:26:45.012Z,11.7
2023-03-18T02:29:13.274Z,11.7
2023-03-18T02:34:09.788Z,11.6
2023-03-18T02:36:38.044Z,11.6
2023-03-18T02:39:06.294Z,11.5
2023-03-18T02:41:34.556Z,11.5
2023-03-18T02:42:49.287Z,11.6
2023-03-18T02:44:02.832Z,11.6
2023-03-18T02:46:31.088Z,11.6
2023-03-18T02:48:59.348Z,11.5
2023-03-18T02:51:27.604Z,11.5
2023-03-18T02:53:55.860Z,11.4
2023-03-18T02:56:24.122Z,11.3
2023-03-18T02:58:52.378Z,11.4
2023-03-18T03:01:20.629Z,11.5
2023-03-18T03:06:17.144Z,11.3
2023-03-18T03:07:31.879Z,11.1
2023-03-18T03:08:45.421Z,11.1
2023-03-18T03:11:13.679Z,11.1
2023-03-18T03:13:41.933Z,11.1
2023-03-18T03:16:10.191Z,11.1
2023-03-18T03:18:38.447Z,11.1
2023-03-18T03:21:06.703Z,11.1
2023-03-18T03:23:34.961Z,11.2
2023-03-18T03:26:03.223Z,11.3
2023-03-18T03:28:31.475Z,11.2
2023-03-18T03:30:59.730Z,11.1
2023-03-18T03:32:14.470Z,11.1
2023-03-18T03:35:56.498Z,11.1
2023-03-18T03:38:24.758Z,11.2
2023-03-18T03:40:53.010Z,11.4
2023-03-18T03:43:21.268Z,11.1
2023-03-18T03:45:49.530Z,11.1
2023-03-18T03:48:17.788Z,11
2023-03-18T03:50:46.038Z,11.2
2023-03-18T03:53:14.296Z,11.1
2023-03-18T03:55:42.554Z,11
2023-03-18T03:56:57.287Z,11.1
2023-03-18T03:58:10.829Z,11.1
2023-03-18T04:00:39.089Z,11.1
2023-03-18T04:03:07.345Z,11.2
2023-03-18T04:08:03.862Z,11
2023-03-18T04:10:32.113Z,11.2
2023-03-18T04:13:00.374Z,11.2
2023-03-18T04:15:28.628Z,11.3
2023-03-18T04:17:56.886Z,11.3
2023-03-18T04:20:25.142Z,11.3
2023-03-18T04:21:39.870Z,11.1
2023-03-18T04:22:53.420Z,11.1
2023-03-18T04:25:21.679Z,11.1
2023-03-18T04:27:49.933Z,11.1
2023-03-18T04:30:18.187Z,11.1
2023-03-18T04:32:46.450Z,11
2023-03-18T04:35:14.699Z,11.1
2023-03-18T04:40:11.216Z,11
2023-03-18T04:42:39.468Z,10.9
2023-03-18T04:45:07.732Z,10.9
2023-03-18T04:46:22.460Z,10.8
2023-03-18T04:47:36.010Z,10.9
2023-03-18T04:50:04.266Z,10.9
2023-03-18T04:52:32.522Z,10.8
2023-03-18T04:55:00.778Z,10.9
2023-03-18T04:57:29.030Z,10.9
2023-03-18T04:59:57.288Z,11
2023-03-18T05:02:25.553Z,10.9
2023-03-18T05:04:53.802Z,10.8
2023-03-18T05:07:22.067Z,10.8
2023-03-18T05:11:05.055Z,10.8
2023-03-18T05:12:18.602Z,10.9
2023-03-18T05:14:46.858Z,10.8
2023-03-18T05:17:15.107Z,10.7
2023-03-18T05:19:43.366Z,10.7
2023-03-18T05:22:11.623Z,10.7
2023-03-18T05:24:39.881Z,10.8
2023-03-18T05:27:08.135Z,10.9
2023-03-18T05:29:36.395Z,10.9
2023-03-18T05:32:04.651Z,10.8
2023-03-18T05:34:32.911Z,10.9
2023-03-18T05:35:47.647Z,10.7
2023-03-18T05:37:01.190Z,10.8
2023-03-18T05:41:57.699Z,10.8
2023-03-18T05:44:25.963Z,10.8
2023-03-18T05:46:54.213Z,10.8
2023-03-18T05:49:22.469Z,10.8
2023-03-18T05:51:50.728Z,10.9
2023-03-18T05:54:18.984Z,11
2023-03-18T05:56:47.248Z,10.9
2023-03-18T05:59:15.500Z,10.9
2023-03-18T06:00:30.280Z,11
2023-03-18T06:01:43.776Z,11
2023-03-18T06:04:12.032Z,11
2023-03-18T06:06:40.292Z,11.1
2023-03-18T06:09:08.550Z,11.1
2023-03-18T06:14:05.060Z,11
2023-03-18T06:16:33.320Z,10.8
2023-03-18T06:19:01.576Z,10.9
2023-03-18T06:21:29.828Z,11
2023-03-18T06:23:58.092Z,10.9
2023-03-18T06:25:12.820Z,11.1
2023-03-18T06:26:26.362Z,11
2023-03-18T06:28:54.627Z,11
2023-03-18T06:31:22.878Z,11
2023-03-18T06:33:51.135Z,11
2023-03-18T06:36:19.389Z,11
2023-03-18T06:38:47.645Z,11
2023-03-18T06:41:15.909Z,10.9
2023-03-18T06:46:12.422Z,10.9
2023-03-18T06:48:40.678Z,11
2023-03-18T06:49:55.409Z,11.1
2023-03-18T06:51:08.951Z,11.1
2023-03-18T06:53:37.208Z,11.1
2023-03-18T06:56:05.464Z,11.3
2023-03-18T06:58:33.720Z,11.2
2023-03-18T07:01:01.982Z,11.3
2023-03-18T07:03:30.242Z,11.3
2023-03-18T07:05:58.492Z,11.2
2023-03-18T07:08:26.752Z,11.3
2023-03-18T07:10:55.013Z,11.4
2023-03-18T07:13:23.263Z,11.2
2023-03-18T07:15:51.527Z,11.3
2023-03-18T07:18:19.781Z,11.4
2023-03-18T07:20:48.038Z,11.7
2023-03-18T07:23:16.293Z,11.5
2023-03-18T07:25:44.556Z,11.7
2023-03-18T07:28:12.807Z,11.7
2023-03-18T07:30:41.065Z,11.7
2023-03-18T07:33:09.321Z,11.8
2023-03-18T07:35:37.581Z,11.8
2023-03-18T07:38:05.833Z,11.7
2023-03-18T07:39:20.591Z,11.8
2023-03-18T07:40:34.128Z,11.9
2023-03-18T07:43:02.386Z,11.8
2023-03-18T07:47:58.900Z,11.9
2023-03-18T07:50:27.156Z,12.1
2023-03-18T07:52:55.412Z,12.1
2023-03-18T07:55:23.667Z,12.1
2023-03-18T07:57:51.931Z,12.1
2023-03-18T08:00:20.183Z,12.2
2023-03-18T08:02:48.439Z,12.2
2023-03-18T08:04:03.175Z,12.4
2023-03-18T08:05:16.717Z,12.3
2023-03-18T08:07:44.974Z,12.3
2023-03-18T08:10:13.229Z,12.5
2023-03-18T08:12:41.486Z,12.8
2023-03-18T08:15:09.743Z,12.7
2023-03-18T08:20:06.258Z,12.6
2023-03-18T08:22:34.511Z,12.6
2023-03-18T08:25:02.771Z,12.7
2023-03-18T08:27:31.023Z,12.7
2023-03-18T08:28:45.756Z,12.6
2023-03-18T08:29:59.305Z,12.5
2023-03-18T08:32:27.557Z,12.5
2023-03-18T08:34:55.820Z,12.6
2023-03-18T08:37:24.076Z,12.4
2023-03-18T08:39:52.330Z,12.5
2023-03-18T08:42:20.585Z,12.4
2023-03-18T08:44:48.843Z,12.3
2023-03-18T08:47:17.096Z,12.2
2023-03-18T08:52:13.618Z,12.5
2023-03-18T08:53:28.346Z,12.5
2023-03-18T08:54:41.888Z,12.4
2023-03-18T08:57:10.147Z,12.3
2023-03-18T08:59:38.403Z,12.4
2023-03-18T09:02:06.659Z,12.4
2023-03-18T09:04:34.917Z,12.5
2023-03-18T09:07:03.174Z,12.3
2023-03-18T09:09:31.430Z,12.3
2023-03-18T09:11:59.687Z,12.4
2023-03-18T09:14:27.940Z,12.3
2023-03-18T09:16:56.201Z,12.3
2023-03-18T09:18:10.935Z,12.2
2023-03-18T09:21:52.962Z,12.1
2023-03-18T09:24:21.224Z,12.3
2023-03-18T09:26:49.478Z,12.2
2023-03-18T09:29:17.728Z,12.3
2023-03-18T09:31:45.991Z,12.3
2023-03-18T09:34:14.241Z,12.3
2023-03-18T09:36:42.499Z,12.3
2023-03-18T09:39:10.755Z,12.2
2023-03-18T09:41:39.018Z,12.3
2023-03-18T09:42:53.745Z,12.3
2023-03-18T09:44:07.287Z,12.1
2023-03-18T09:46:35.551Z,12.2
2023-03-18T09:49:03.802Z,12.1
2023-03-18T09:54:00.314Z,12.1
2023-03-18T09:56:28.574Z,12.2
2023-03-18T09:58:56.833Z,12.1
2023-03-18T10:01:25.085Z,12.3
2023-03-18T10:03:53.340Z,12.2
2023-03-18T10:06:21.599Z,12.2
2023-03-18T10:07:36.331Z,12.3
2023-03-18T10:08:49.881Z,12.2
2023-03-18T10:11:18.135Z,12.4
2023-03-18T10:13:46.392Z,12.3
2023-03-18T10:16:14.642Z,12.3
2023-03-18T10:18:42.899Z,12.5
2023-03-18T10:21:11.155Z,13.3
2023-03-18T10:26:07.675Z,13.7
2023-03-18T10:28:35.935Z,14.1
2023-03-18T10:31:04.184Z,13.7
2023-03-18T10:32:18.915Z,13.3
2023-03-18T10:33:32.459Z,13.4
2023-03-18T10:36:00.720Z,13.8
2023-03-18T10:38:28.973Z,14.2
2023-03-18T10:40:57.233Z,13.9
2023-03-18T10:43:25.489Z,14.5
2023-03-18T10:45:53.749Z,15
2023-03-18T10:48:22.004Z,15
2023-03-18T10:50:50.262Z,15.7
2023-03-18T10:53:18.514Z,16.5
2023-03-18T10:57:01.509Z,17.2
2023-03-18T10:58:15.054Z,17.1
2023-03-18T11:00:43.302Z,17
2023-03-18T11:03:11.561Z,17.1
2023-03-18T11:05:39.822Z,15.9
2023-03-18T11:08:08.074Z,15.1
2023-03-18T11:10:36.334Z,16
2023-03-18T11:13:04.589Z,15.4
2023-03-18T11:15:32.842Z,15.4
2023-03-18T11:18:01.105Z,15.3
2023-03-18T11:20:29.358Z,15
2023-03-18T11:21:44.091Z,14.7
2023-03-18T11:22:57.636Z,14.5
2023-03-18T11:27:54.154Z,14.5
2023-03-18T11:30:22.406Z,14.8
2023-03-18T11:32:50.660Z,14.7
2023-03-18T11:35:18.918Z,14.8
2023-03-18T11:37:47.180Z,14.9
2023-03-18T11:40:15.431Z,15
2023-03-18T11:42:43.690Z,15.2
2023-03-18T11:45:11.950Z,15.4
2023-03-18T11:46:26.684Z,15.3
2023-03-18T11:47:40.226Z,15.3
2023-03-18T11:50:08.476Z,15.5
2023-03-18T11:52:36.734Z,15.6
2023-03-18T11:55:04.994Z,15.3
2023-03-18T12:00:01.507Z,15.6
2023-03-18T12:02:29.761Z,16
2023-03-18T12:04:58.017Z,15.5
2023-03-18T12:07:26.278Z,15.4
2023-03-18T12:09:54.529Z,15.4
2023-03-18T12:11:09.270Z,15.7
2023-03-18T12:12:22.808Z,15.5
2023-03-18T12:14:51.064Z,15.5
2023-03-18T12:17:19.323Z,15.6
2023-03-18T12:19:47.580Z,15.7
2023-03-18T12:22:15.834Z,15.4
2023-03-18T12:24:44.096Z,15.5
2023-03-18T12:27:12.349Z,14.9
2023-03-18T12:32:08.864Z,14.6
2023-03-18T12:34:37.120Z,14.6
2023-03-18T12:35:51.847Z,14.7
2023-03-18T12:37:05.391Z,14.9
2023-03-18T12:39:33.656Z,15
2023-03-18T12:42:01.905Z,15.2
2023-03-18T12:44:30.168Z,15.4
2023-03-18T12:46:58.421Z,15.4
2023-03-18T12:49:26.681Z,15.5
2023-03-18T12:51:54.936Z,15.6
2023-03-18T12:54:23.187Z,15.5
2023-03-18T12:56:51.444Z,15.7
2023-03-18T12:59:19.707Z,15.6
2023-03-18T13:01:47.962Z,15.8
2023-03-18T13:04:16.223Z,15.9
2023-03-18T13:06:44.472Z,15.8
2023-03-18T13:09:12.734Z,16
2023-03-18T13:11:40.985Z,15.9
2023-03-18T13:14:09.241Z,15.9
2023-03-18T13:16:37.505Z,15.9
2023-03-18T13:19:05.752Z,15.8
2023-03-18T13:21:34.013Z,15.8
2023-03-18T13:24:02.266Z,15.6
2023-03-18T13:25:17.023Z,15.5
2023-03-18T13:26:30.566Z,15.4
2023-03-18T13:28:58.821Z,15.3
2023-03-18T13:33:55.333Z,15.5
2023-03-18T13:36:23.591Z,15.9
2023-03-18T13:38:51.848Z,16.2
2023-03-18T13:41:20.101Z,16.4
2023-03-18T13:43:48.363Z,16.5
2023-03-18T13:46:16.610Z,16.6
2023-03-18T13:48:44.871Z,16.8
2023-03-18T13:49:59.603Z,16.6
2023-03-18T13:51:13.152Z,16.5
2023-03-18T13:53:41.407Z,16.6
2023-03-18T13:56:09.665Z,16.5
2023-03-18T13:58:37.919Z,16.4
2023-03-18T14:01:06.175Z,16.5
2023-03-18T14:06:02.689Z,16.7
2023-03-18T14:08:30.947Z,17.2
2023-03-18T14:10:59.203Z,17.1
2023-03-18T14:13:27.462Z,16.9
2023-03-18T14:14:42.194Z,17
2023-03-18T14:15:55.735Z,17
2023-03-18T14:18:23.990Z,16.9
2023-03-18T14:20:52.252Z,16.9
2023-03-18T14:23:20.509Z,16.6
2023-03-18T14:25:48.764Z,16.7
2023-03-18T14:28:17.016Z,17
2023-03-18T14:30:45.274Z,16.9
2023-03-18T14:33:13.528Z,16.9
2023-03-18T14:38:10.044Z,16.7
2023-03-18T14:39:24.781Z,16.4
2023-03-18T14:40:38.320Z,16.5
2023-03-18T14:43:06.579Z,16.4
2023-03-18T14:45:34.841Z,16.3
2023-03-18T14:48:03.089Z,16.6
2023-03-18T14:50:31.351Z,16.9
2023-03-18T14:52:59.603Z,16.8
2023-03-18T14:55:27.865Z,16.6
2023-03-18T14:57:56.118Z,16.4
2023-03-18T15:00:24.371Z,16.3
2023-03-18T15:02:52.635Z,16.3
2023-03-18T15:04:07.364Z,16.8
2023-03-18T15:07:49.392Z,16.8
2023-03-18T15:10:17.650Z,17.1
2023-03-18T15:12:45.908Z,17
2023-03-18T15:15:14.170Z,16.9
2023-03-18T15:17:42.422Z,16.9
2023-03-18T15:20:10.676Z,17.2
2023-03-18T15:22:38.936Z,17.2
2023-03-18T15:25:07.190Z,16.8
2023-03-18T15:27:35.448Z,17
2023-03-18T15:28:50.187Z,17
2023-03-18T15:30:03.727Z,17.1
2023-03-18T15:32:31.987Z,17.1
2023-03-18T15:35:00.242Z,17.1
2023-03-18T15:39:56.751Z,16.9
2023-03-18T15:42:25.006Z,16.5
2023-03-18T15:44:53.271Z,16.6
2023-03-18T15:47:21.526Z,16.6
2023-03-18T15:49:49.779Z,16.7
2023-03-18T15:52:18.034Z,16.7
2023-03-18T15:53:32.771Z,16.6
2023-03-18T15:54:46.311Z,16.7
2023-03-18T15:57:14.576Z,16.6
2023-03-18T15:59:42.832Z,16.6
2023-03-18T16:02:11.082Z,16.7
2023-03-18T16:04:39.344Z,16.9
2023-03-18T16:07:07.600Z,16.7
2023-03-18T16:12:04.109Z,16.5
2023-03-18T16:14:32.371Z,16.7
2023-03-18T16:17:00.627Z,16.7
2023-03-18T16:18:15.354Z,16.6
2023-03-18T16:19:28.901Z,16.6
2023-03-18T16:21:57.161Z,16.6
2023-03-18T16:24:25.418Z,16.7
2023-03-18T16:26:53.666Z,16.7
2023-03-18T16:29:21.924Z,16.6
2023-03-18T16:31:50.182Z,16.5
2023-03-18T16:34:18.442Z,16
2023-03-18T16:36:46.692Z,16.1
2023-03-18T16:39:14.947Z,15.8
2023-03-18T16:42:57.941Z,15.7
2023-03-18T16:44:11.483Z,15.5
2023-03-18T16:46:39.740Z,15.5
2023-03-18T16:49:07.999Z,15.4
2023-03-18T16:51:36.254Z,15.5
2023-03-18T16:54:04.512Z,15.3
2023-03-18T16:56:32.766Z,15.1
2023-03-18T16:59:01.020Z,15.2
2023-03-18T17:01:29.282Z,15.4
2023-03-18T17:03:57.538Z,15.5
2023-03-18T17:06:25.788Z,15.5
2023-03-18T17:07:40.527Z,15.5
2023-03-18T17:08:54.065Z,15.4
2023-03-18T17:13:50.577Z,14.9
2023-03-18T17:16:18.835Z,14.4
2023-03-18T17:18:47.099Z,14.5
2023-03-18T17:21:15.355Z,14.5
2023-03-18T17:23:43.606Z,14.6
2023-03-18T17:26:11.863Z,14.8
2023-03-18T17:28:40.128Z,14.7
2023-03-18T17:31:08.375Z,14.5
2023-03-18T17:32:23.113Z,14.4
2023-03-18T17:33:36.653Z,14.5
2023-03-18T17:36:04.915Z,14.5
2023-03-18T17:38:33.172Z,14.6
2023-03-18T17:41:01.422Z,14.4
2023-03-18T17:45:57.938Z,14.3
2023-03-18T17:48:26.192Z,14
2023-03-18T17:50:54.448Z,14
2023-03-18T17:53:22.707Z,14
2023-03-18T17:55:50.969Z,14
2023-03-18T17:57:05.695Z,13.8
2023-03-18T17:58:19.241Z,13.6
2023-03-18T18:00:47.497Z,13.4
2023-03-18T18:03:15.751Z,13.5
2023-03-18T18:05:44.010Z,13.6
2023-03-18T18:08:12.271Z,13.7
2023-03-18T18:10:40.527Z,13.7
2023-03-18T18:13:08.785Z,13.5
2023-03-18T18:18:05.291Z,13.5
2023-03-18T18:20:33.548Z,12.9
2023-03-18T18:21:48.287Z,13.1
2023-03-18T18:23:01.828Z,13.1
2023-03-18T18:25:30.082Z,13.1
2023-03-18T18:27:58.339Z,13.2
2023-03-18T18:30:26.600Z,13.3
2023-03-18T18:32:54.858Z,13
2023-03-18T18:35:23.111Z,12.9
2023-03-18T18:37:51.364Z,13
2023-03-18T18:40:19.629Z,13
2023-03-18T18:42:47.881Z,13
2023-03-18T18:45:16.138Z,12.9
2023-03-18T18:47:44.397Z,13
2023-03-18T18:50:12.650Z,13
2023-03-18T18:52:40.913Z,13
2023-03-18T18:55:09.167Z,12.8
2023-03-18T18:57:37.424Z,12.8
2023-03-18T19:02:33.939Z,13
2023-03-18T19:05:02.194Z,13
2023-03-18T19:07:30.449Z,13
2023-03-18T19:09:58.704Z,13
2023-03-18T19:11:13.454Z,13
2023-03-18T19:12:27.005Z,13.1
2023-03-18T19:14:55.263Z,13
2023-03-18T19:19:51.777Z,13
2023-03-18T19:22:20.026Z,12.8
2023-03-18T19:24:48.282Z,12.8
2023-03-18T19:27:16.544Z,12.6
2023-03-18T19:29:44.800Z,12.8
2023-03-18T19:32:13.056Z,12.9
2023-03-18T19:34:41.310Z,12.8
2023-03-18T19:35:56.046Z,12.8
2023-03-18T19:37:09.592Z,12.8
2023-03-18T19:39:37.849Z,12.8
2023-03-18T19:42:06.107Z,12.7
2023-03-18T19:44:34.363Z,12.7
2023-03-18T19:47:02.625Z,12.6
2023-03-18T19:51:59.135Z,12.6
2023-03-18T19:54:27.391Z,12.6
2023-03-18T19:56:55.652Z,12.6
2023-03-18T19:59:23.907Z,12.6
2023-03-18T20:00:38.638Z,12.4
2023-03-18T20:01:52.182Z,12.4
2023-03-18T20:04:20.441Z,12.5
2023-03-18T20:06:48.700Z,12.5
2023-03-18T20:09:16.952Z,12.4
2023-03-18T20:11:45.213Z,12.4
2023-03-18T20:14:13.466Z,12.5
2023-03-18T20:16:41.718Z,12.4
2023-03-18T20:19:09.976Z,12.3
2023-03-18T20:24:06.489Z,12.4
2023-03-18T20:25:21.226Z,12.2
2023-03-18T20:26:34.768Z,12.4
2023-03-18T20:29:03.024Z,12.4
2023-03-18T20:31:31.284Z,12.4
2023-03-18T20:33:59.544Z,12.4
2023-03-18T20:36:27.792Z,12.6
2023-03-18T20:38:56.051Z,12.9
2023-03-18T20:41:24.313Z,12.6
2023-03-18T20:43:52.571Z,12.4
2023-03-18T20:46:20.823Z,12.2
2023-03-18T20:48:49.077Z,12.3
2023-03-18T20:50:03.813Z,12.4
2023-03-18T20:53:45.843Z,12.4
2023-03-18T20:56:14.104Z,12.1
2023-03-18T20:58:42.362Z,12.4
2023-03-18T21:01:10.615Z,12.5
2023-03-18T21:03:38.870Z,12.2
2023-03-18T21:06:07.133Z,12
2023-03-18T21:08:35.383Z,12.2
2023-03-18T21:11:03.644Z,11.8
2023-03-18T21:13:31.899Z,11.9
2023-03-18T21:14:46.633Z,12
2023-03-18T21:16:00.178Z,11.9
2023-03-18T21:18:28.435Z,11.8
2023-03-18T21:20:56.695Z,11.7
2023-03-18T21:25:53.201Z,11.8
2023-03-18T21:28:21.459Z,11.9
2023-03-18T21:30:49.725Z,11.7
2023-03-18T21:33:17.977Z,11.8
2023-03-18T21:35:46.239Z,11.8
2023-03-18T21:38:14.492Z,11.8
2023-03-18T21:39:29.226Z,11.8
2023-03-18T21:40:42.767Z,11.8
2023-03-18T21:43:11.029Z,11.8
2023-03-18T21:45:39.284Z,12
2023-03-18T21:48:07.542Z,11.8
2023-03-18T21:50:35.790Z,11.7
2023-03-18T21:53:04.052Z,11.7
2023-03-18T21:58:00.566Z,11.7
2023-03-18T22:00:28.826Z,11.7
2023-03-18T22:02:57.084Z,11.7
2023-03-18T22:04:11.812Z,11.5
2023-03-18T22:05:25.364Z,11.5
2023-03-18T22:07:53.612Z,11.7
2023-03-18T22:10:21.870Z,11.9
2023-03-18T22:12:50.131Z,11.6
2023-03-18T22:15:18.383Z,11.5
2023-03-18T22:17:46.637Z,11.5
2023-03-18T22:20:14.895Z,11.3
2023-03-18T22:22:43.152Z,11.3
2023-03-18T22:25:11.416Z,11.3
2023-03-18T22:28:54.401Z,11.3
2023-03-18T22:30:07.945Z,11.5
2023-03-18T22:32:36.199Z,11.6
2023-03-18T22:35:04.458Z,11.3
2023-03-18T22:37:32.712Z,11.4
2023-03-18T22:40:00.970Z,11.3
2023-03-18T22:42:29.229Z,11.6
2023-03-18T22:44:57.482Z,11.6
2023-03-18T22:47:25.738Z,11.8
2023-03-18T22:49:54.000Z,11.7
2023-03-18T22:52:22.258Z,11.7
2023-03-18T22:53:36.988Z,11.8
2023-03-18T22:54:50.534Z,11.8
2023-03-18T22:59:47.046Z,11.6
2023-03-18T23:02:15.304Z,11.4
2023-03-18T23:04:43.556Z,11.3
2023-03-18T23:07:11.813Z,11.4
2023-03-18T23:09:40.077Z,11.2
2023-03-18T23:12:08.331Z,11.3
2023-03-18T23:14:36.589Z,11.3
2023-03-18T23:17:04.843Z,11.5
2023-03-18T23:18:19.581Z,11.6
2023-03-18T23:19:33.125Z,11.6
2023-03-18T23:22:01.376Z,11.6
2023-03-18T23:24:29.635Z,11.2
2023-03-18T23:26:57.896Z,11.2
2023-03-18T23:31:54.408Z,11.5
2023-03-18T23:34:22.668Z,11.8
2023-03-18T23:36:50.920Z,11.8
2023-03-18T23:39:19.175Z,11.6
2023-03-18T23:41:47.439Z,11.6
2023-03-18T23:43:02.166Z,11.7
2023-03-18T23:44:15.712Z,11.7
2023-03-18T23:46:43.972Z,11.7
2023-03-18T23:49:12.230Z,11.6
2023-03-18T23:51:40.478Z,11.6
2023-03-18T23:54:08.738Z,11.8
2023-03-18T23:56:37.000Z,11.5
2023-03-18T23:59:05.254Z,11.5
